Rimbey, Canada
Current Conditions -  °F | °C
As of 9:33 AM on Thursday 29 Jan 2015 (Local Time) from CYQF Reporting Station
Haze Haze  
Wind Chill: 12°   Ceiling: 200
Heat Index: 23°   Visibility: 0.75mi
Dew Point: 21°   Wind: 10mph
Humidity: 93%   Direction: 180°S
Pressure: 30.22"   Gusts: NA
Location:  52.63°N, 114.22°W
Report Text: CYQF 291633Z 18009KT 3/4SM BR OVC002 M05/M06 A3022 RMK FG3ST5 VIS VRB 1/2-1 SLP290
Loading
Personal Weather Stations






























Interactive Weather Map New forecast layout! Learn more

10-Day Weather Forecast

Advertisements
Track Severe Weather on mobile